sensor_id;sensor_type;location;lat;lon;timestamp;temperature;humidity
72650;SHT31;61467;50.674;4.618;2022-07-29T00:01:44;20.90;48.91
72650;SHT31;61467;50.674;4.618;2022-07-29T00:04:11;20.89;49.00
72650;SHT31;61467;50.674;4.618;2022-07-29T00:06:39;20.98;49.06
72650;SHT31;61467;50.674;4.618;2022-07-29T00:09:06;20.93;49.13
72650;SHT31;61467;50.674;4.618;2022-07-29T00:11:33;20.85;49.23
72650;SHT31;61467;50.674;4.618;2022-07-29T00:14:00;20.76;49.53
72650;SHT31;61467;50.674;4.618;2022-07-29T00:16:27;20.85;49.49
72650;SHT31;61467;50.674;4.618;2022-07-29T00:18:55;20.79;49.62
72650;SHT31;61467;50.674;4.618;2022-07-29T00:21:21;20.83;49.54
72650;SHT31;61467;50.674;4.618;2022-07-29T00:23:48;20.61;50.04
72650;SHT31;61467;50.674;4.618;2022-07-29T00:26:15;20.55;50.31
72650;SHT31;61467;50.674;4.618;2022-07-29T00:28:41;20.49;50.58
72650;SHT31;61467;50.674;4.618;2022-07-29T00:31:08;20.59;50.19
72650;SHT31;61467;50.674;4.618;2022-07-29T00:33:35;20.67;50.00
72650;SHT31;61467;50.674;4.618;2022-07-29T00:36:04;20.64;50.24
72650;SHT31;61467;50.674;4.618;2022-07-29T00:38:30;20.64;50.21
72650;SHT31;61467;50.674;4.618;2022-07-29T00:40:56;20.72;50.04
72650;SHT31;61467;50.674;4.618;2022-07-29T00:43:23;20.69;50.08
72650;SHT31;61467;50.674;4.618;2022-07-29T00:45:50;20.75;50.16
72650;SHT31;61467;50.674;4.618;2022-07-29T00:48:17;20.62;50.54
72650;SHT31;61467;50.674;4.618;2022-07-29T00:50:43;20.58;50.49
72650;SHT31;61467;50.674;4.618;2022-07-29T00:53:11;20.71;50.33
72650;SHT31;61467;50.674;4.618;2022-07-29T00:55:38;20.64;50.37
72650;SHT31;61467;50.674;4.618;2022-07-29T00:58:06;20.44;50.99
72650;SHT31;61467;50.674;4.618;2022-07-29T01:00:33;20.37;51.27
72650;SHT31;61467;50.674;4.618;2022-07-29T01:03:00;20.22;51.53
72650;SHT31;61467;50.674;4.618;2022-07-29T01:05:27;20.25;51.48
72650;SHT31;61467;50.674;4.618;2022-07-29T01:07:55;19.98;52.17
72650;SHT31;61467;50.674;4.618;2022-07-29T01:10:25;20.22;51.66
72650;SHT31;61467;50.674;4.618;2022-07-29T01:12:53;20.45;50.95
72650;SHT31;61467;50.674;4.618;2022-07-29T01:15:21;20.28;51.34
72650;SHT31;61467;50.674;4.618;2022-07-29T01:17:53;20.22;51.52
72650;SHT31;61467;50.674;4.618;2022-07-29T01:20:26;20.25;51.49
72650;SHT31;61467;50.674;4.618;2022-07-29T01:23:23;20.06;52.00
72650;SHT31;61467;50.674;4.618;2022-07-29T01:26:14;20.16;51.93
72650;SHT31;61467;50.674;4.618;2022-07-29T01:29:00;20.10;52.06
72650;SHT31;61467;50.674;4.618;2022-07-29T01:31:33;20.10;52.15
72650;SHT31;61467;50.674;4.618;2022-07-29T01:34:03;19.73;53.16
72650;SHT31;61467;50.674;4.618;2022-07-29T01:36:33;19.65;53.39
72650;SHT31;61467;50.674;4.618;2022-07-29T01:39:05;19.46;53.93
72650;SHT31;61467;50.674;4.618;2022-07-29T01:41:34;19.58;53.87
72650;SHT31;61467;50.674;4.618;2022-07-29T01:44:11;19.52;53.91
72650;SHT31;61467;50.674;4.618;2022-07-29T01:46:43;19.42;54.22
72650;SHT31;61467;50.674;4.618;2022-07-29T01:49:14;19.52;54.17
72650;SHT31;61467;50.674;4.618;2022-07-29T01:51:45;19.65;53.75
72650;SHT31;61467;50.674;4.618;2022-07-29T01:54:18;19.42;54.44
72650;SHT31;61467;50.674;4.618;2022-07-29T01:56:49;19.39;54.43
72650;SHT31;61467;50.674;4.618;2022-07-29T01:59:20;19.32;54.77
72650;SHT31;61467;50.674;4.618;2022-07-29T02:01:48;19.00;55.55
72650;SHT31;61467;50.674;4.618;2022-07-29T02:04:16;18.95;55.82
72650;SHT31;61467;50.674;4.618;2022-07-29T02:06:48;18.84;56.37
72650;SHT31;61467;50.674;4.618;2022-07-29T02:09:16;19.01;55.78
72650;SHT31;61467;50.674;4.618;2022-07-29T02:11:48;18.84;56.27
72650;SHT31;61467;50.674;4.618;2022-07-29T02:14:16;19.26;55.25
72650;SHT31;61467;50.674;4.618;2022-07-29T02:16:47;19.16;55.38
72650;SHT31;61467;50.674;4.618;2022-07-29T02:19:17;19.21;55.26
72650;SHT31;61467;50.674;4.618;2022-07-29T02:21:45;18.92;56.17
72650;SHT31;61467;50.674;4.618;2022-07-29T02:24:13;18.78;56.59
72650;SHT31;61467;50.674;4.618;2022-07-29T02:26:41;18.81;56.53
72650;SHT31;61467;50.674;4.618;2022-07-29T02:29:09;18.67;57.10
72650;SHT31;61467;50.674;4.618;2022-07-29T02:31:38;18.59;57.35
72650;SHT31;61467;50.674;4.618;2022-07-29T02:34:08;18.59;57.37
72650;SHT31;61467;50.674;4.618;2022-07-29T02:36:36;18.70;57.06
72650;SHT31;61467;50.674;4.618;2022-07-29T02:39:04;18.90;56.75
72650;SHT31;61467;50.674;4.618;2022-07-29T02:41:37;18.87;56.64
72650;SHT31;61467;50.674;4.618;2022-07-29T02:44:09;18.92;56.33
72650;SHT31;61467;50.674;4.618;2022-07-29T02:46:43;18.67;57.23
72650;SHT31;61467;50.674;4.618;2022-07-29T02:49:18;18.68;57.39
72650;SHT31;61467;50.674;4.618;2022-07-29T02:51:52;18.71;57.20
72650;SHT31;61467;50.674;4.618;2022-07-29T02:54:31;18.73;57.11
72650;SHT31;61467;50.674;4.618;2022-07-29T02:57:02;18.78;57.04
72650;SHT31;61467;50.674;4.618;2022-07-29T02:59:33;18.65;57.40
72650;SHT31;61467;50.674;4.618;2022-07-29T03:02:02;18.68;57.49
72650;SHT31;61467;50.674;4.618;2022-07-29T03:04:30;18.65;57.41
72650;SHT31;61467;50.674;4.618;2022-07-29T03:06:59;18.63;57.65
72650;SHT31;61467;50.674;4.618;2022-07-29T03:09:27;18.59;57.85
72650;SHT31;61467;50.674;4.618;2022-07-29T03:11:54;18.68;57.85
72650;SHT31;61467;50.674;4.618;2022-07-29T03:14:22;18.54;57.84
72650;SHT31;61467;50.674;4.618;2022-07-29T03:16:50;18.60;57.77
72650;SHT31;61467;50.674;4.618;2022-07-29T03:19:17;18.56;57.90
72650;SHT31;61467;50.674;4.618;2022-07-29T03:21:45;18.54;57.98
72650;SHT31;61467;50.674;4.618;2022-07-29T03:24:25;18.51;58.14
72650;SHT31;61467;50.674;4.618;2022-07-29T03:26:52;18.51;58.08
72650;SHT31;61467;50.674;4.618;2022-07-29T03:29:18;18.47;58.10
72650;SHT31;61467;50.674;4.618;2022-07-29T03:31:45;18.44;58.26
72650;SHT31;61467;50.674;4.618;2022-07-29T03:34:12;18.42;58.42
72650;SHT31;61467;50.674;4.618;2022-07-29T03:36:38;18.37;58.59
72650;SHT31;61467;50.674;4.618;2022-07-29T03:39:08;18.32;58.83
72650;SHT31;61467;50.674;4.618;2022-07-29T03:41:36;18.32;58.76
72650;SHT31;61467;50.674;4.618;2022-07-29T03:44:07;18.28;58.74
72650;SHT31;61467;50.674;4.618;2022-07-29T03:46:35;18.33;58.81
72650;SHT31;61467;50.674;4.618;2022-07-29T03:49:04;18.23;58.88
72650;SHT31;61467;50.674;4.618;2022-07-29T03:51:33;18.22;59.16
72650;SHT31;61467;50.674;4.618;2022-07-29T03:54:01;18.16;59.28
72650;SHT31;61467;50.674;4.618;2022-07-29T03:56:29;18.14;59.38
72650;SHT31;61467;50.674;4.618;2022-07-29T03:58:59;18.10;59.33
72650;SHT31;61467;50.674;4.618;2022-07-29T04:01:28;18.09;59.58
72650;SHT31;61467;50.674;4.618;2022-07-29T04:03:56;18.09;59.45
72650;SHT31;61467;50.674;4.618;2022-07-29T04:06:22;18.03;59.68
72650;SHT31;61467;50.674;4.618;2022-07-29T04:08:50;18.05;59.58
72650;SHT31;61467;50.674;4.618;2022-07-29T04:11:17;18.01;59.65
72650;SHT31;61467;50.674;4.618;2022-07-29T04:13:45;17.93;59.84
72650;SHT31;61467;50.674;4.618;2022-07-29T04:16:13;17.89;59.98
72650;SHT31;61467;50.674;4.618;2022-07-29T04:18:40;17.75;60.18
72650;SHT31;61467;50.674;4.618;2022-07-29T04:21:06;18.19;59.11
72650;SHT31;61467;50.674;4.618;2022-07-29T04:23:33;18.63;57.47
72650;SHT31;61467;50.674;4.618;2022-07-29T04:26:00;18.92;56.57
72650;SHT31;61467;50.674;4.618;2022-07-29T04:28:26;19.08;55.92
72650;SHT31;61467;50.674;4.618;2022-07-29T04:30:55;19.11;55.67
72650;SHT31;61467;50.674;4.618;2022-07-29T04:33:22;19.18;55.48
72650;SHT31;61467;50.674;4.618;2022-07-29T04:35:48;19.23;55.38
72650;SHT31;61467;50.674;4.618;2022-07-29T04:38:15;19.51;54.41
72650;SHT31;61467;50.674;4.618;2022-07-29T04:40:42;19.58;54.27
72650;SHT31;61467;50.674;4.618;2022-07-29T04:43:08;19.66;54.03
72650;SHT31;61467;50.674;4.618;2022-07-29T04:45:36;19.58;54.39
72650;SHT31;61467;50.674;4.618;2022-07-29T04:48:04;19.18;55.44
72650;SHT31;61467;50.674;4.618;2022-07-29T04:50:31;19.35;55.13
72650;SHT31;61467;50.674;4.618;2022-07-29T04:52:58;19.41;54.85
72650;SHT31;61467;50.674;4.618;2022-07-29T04:55:25;19.63;54.24
72650;SHT31;61467;50.674;4.618;2022-07-29T04:57:51;19.89;53.68
72650;SHT31;61467;50.674;4.618;2022-07-29T05:00:18;19.98;53.28
72650;SHT31;61467;50.674;4.618;2022-07-29T05:02:45;20.10;53.14
72650;SHT31;61467;50.674;4.618;2022-07-29T05:05:13;20.14;52.82
72650;SHT31;61467;50.674;4.618;2022-07-29T05:07:40;20.30;52.52
72650;SHT31;61467;50.674;4.618;2022-07-29T05:10:07;20.16;52.65
72650;SHT31;61467;50.674;4.618;2022-07-29T05:12:35;19.84;53.98
72650;SHT31;61467;50.674;4.618;2022-07-29T05:15:01;19.52;54.65
72650;SHT31;61467;50.674;4.618;2022-07-29T05:17:28;19.23;55.59
72650;SHT31;61467;50.674;4.618;2022-07-29T05:19:56;18.95;56.18
72650;SHT31;61467;50.674;4.618;2022-07-29T05:22:24;18.91;56.68
72650;SHT31;61467;50.674;4.618;2022-07-29T05:24:52;18.68;57.34
72650;SHT31;61467;50.674;4.618;2022-07-29T05:27:19;18.56;57.56
72650;SHT31;61467;50.674;4.618;2022-07-29T05:29:45;18.36;58.36
72650;SHT31;61467;50.674;4.618;2022-07-29T05:32:12;18.32;58.76
72650;SHT31;61467;50.674;4.618;2022-07-29T05:34:39;18.44;58.57
72650;SHT31;61467;50.674;4.618;2022-07-29T05:37:06;18.44;58.78
72650;SHT31;61467;50.674;4.618;2022-07-29T05:39:34;18.50;58.84
72650;SHT31;61467;50.674;4.618;2022-07-29T05:42:01;18.59;58.89
72650;SHT31;61467;50.674;4.618;2022-07-29T05:44:27;18.64;58.61
72650;SHT31;61467;50.674;4.618;2022-07-29T05:46:55;18.74;58.40
72650;SHT31;61467;50.674;4.618;2022-07-29T05:49:21;18.84;57.99
72650;SHT31;61467;50.674;4.618;2022-07-29T05:51:48;18.97;57.72
72650;SHT31;61467;50.674;4.618;2022-07-29T05:54:14;19.00;57.45
72650;SHT31;61467;50.674;4.618;2022-07-29T05:56:43;19.23;56.82
72650;SHT31;61467;50.674;4.618;2022-07-29T05:59:09;19.21;56.91
72650;SHT31;61467;50.674;4.618;2022-07-29T06:01:36;19.53;56.12
72650;SHT31;61467;50.674;4.618;2022-07-29T06:04:05;19.55;56.05
72650;SHT31;61467;50.674;4.618;2022-07-29T06:06:31;19.65;55.55
72650;SHT31;61467;50.674;4.618;2022-07-29T06:08:58;19.62;55.75
72650;SHT31;61467;50.674;4.618;2022-07-29T06:11:25;19.55;55.80
72650;SHT31;61467;50.674;4.618;2022-07-29T06:13:53;19.42;56.51
72650;SHT31;61467;50.674;4.618;2022-07-29T06:16:19;19.59;56.23
72650;SHT31;61467;50.674;4.618;2022-07-29T06:18:46;19.67;56.08
72650;SHT31;61467;50.674;4.618;2022-07-29T06:21:13;19.70;56.05
72650;SHT31;61467;50.674;4.618;2022-07-29T06:23:40;19.80;56.17
72650;SHT31;61467;50.674;4.618;2022-07-29T06:26:06;20.17;54.85
72650;SHT31;61467;50.674;4.618;2022-07-29T06:28:34;20.20;55.27
72650;SHT31;61467;50.674;4.618;2022-07-29T06:31:02;20.35;55.05
72650;SHT31;61467;50.674;4.618;2022-07-29T06:33:28;20.31;55.32
72650;SHT31;61467;50.674;4.618;2022-07-29T06:35:55;20.47;54.90
72650;SHT31;61467;50.674;4.618;2022-07-29T06:38:22;20.49;55.02
72650;SHT31;61467;50.674;4.618;2022-07-29T06:40:49;20.32;55.44
72650;SHT31;61467;50.674;4.618;2022-07-29T06:43:30;20.44;55.20
72650;SHT31;61467;50.674;4.618;2022-07-29T06:46:05;20.58;55.02
72650;SHT31;61467;50.674;4.618;2022-07-29T06:48:36;20.37;55.62
72650;SHT31;61467;50.674;4.618;2022-07-29T06:51:03;20.20;56.52
72650;SHT31;61467;50.674;4.618;2022-07-29T06:53:31;19.87;57.51
72650;SHT31;61467;50.674;4.618;2022-07-29T06:55:58;20.06;57.24
72650;SHT31;61467;50.674;4.618;2022-07-29T06:58:25;20.17;56.88
72650;SHT31;61467;50.674;4.618;2022-07-29T07:00:54;19.69;58.57
72650;SHT31;61467;50.674;4.618;2022-07-29T07:03:23;20.27;57.13
72650;SHT31;61467;50.674;4.618;2022-07-29T07:05:52;20.45;56.39
72650;SHT31;61467;50.674;4.618;2022-07-29T07:08:19;19.84;58.23
72650;SHT31;61467;50.674;4.618;2022-07-29T07:10:46;19.67;58.36
72650;SHT31;61467;50.674;4.618;2022-07-29T07:13:13;19.56;59.11
72650;SHT31;61467;50.674;4.618;2022-07-29T07:15:39;19.79;58.93
72650;SHT31;61467;50.674;4.618;2022-07-29T07:18:06;20.16;57.47
72650;SHT31;61467;50.674;4.618;2022-07-29T07:20:35;20.78;55.46
72650;SHT31;61467;50.674;4.618;2022-07-29T07:23:02;21.20;54.62
72650;SHT31;61467;50.674;4.618;2022-07-29T07:25:29;20.99;54.89
72650;SHT31;61467;50.674;4.618;2022-07-29T07:27:56;20.93;54.94
72650;SHT31;61467;50.674;4.618;2022-07-29T07:30:23;21.12;54.74
72650;SHT31;61467;50.674;4.618;2022-07-29T07:32:50;20.49;55.97
72650;SHT31;61467;50.674;4.618;2022-07-29T07:35:17;20.71;55.63
72650;SHT31;61467;50.674;4.618;2022-07-29T07:37:45;20.65;56.11
72650;SHT31;61467;50.674;4.618;2022-07-29T07:40:12;20.75;55.89
72650;SHT31;61467;50.674;4.618;2022-07-29T07:42:39;21.40;54.12
72650;SHT31;61467;50.674;4.618;2022-07-29T07:45:07;21.60;53.88
72650;SHT31;61467;50.674;4.618;2022-07-29T07:47:34;21.91;52.62
72650;SHT31;61467;50.674;4.618;2022-07-29T07:50:02;21.90;52.91
72650;SHT31;61467;50.674;4.618;2022-07-29T07:52:29;21.47;53.84
72650;SHT31;61467;50.674;4.618;2022-07-29T07:54:57;21.94;53.00
72650;SHT31;61467;50.674;4.618;2022-07-29T07:57:24;21.74;53.52
72650;SHT31;61467;50.674;4.618;2022-07-29T07:59:51;21.73;53.61
72650;SHT31;61467;50.674;4.618;2022-07-29T08:02:17;22.30;52.19
72650;SHT31;61467;50.674;4.618;2022-07-29T08:04:44;22.52;51.12
72650;SHT31;61467;50.674;4.618;2022-07-29T08:07:11;22.63;50.58
72650;SHT31;61467;50.674;4.618;2022-07-29T08:09:39;22.84;50.29
72650;SHT31;61467;50.674;4.618;2022-07-29T08:12:07;22.74;50.00
72650;SHT31;61467;50.674;4.618;2022-07-29T08:14:34;22.77;50.38
72650;SHT31;61467;50.674;4.618;2022-07-29T08:17:01;22.59;50.32
72650;SHT31;61467;50.674;4.618;2022-07-29T08:19:27;22.12;51.64
72650;SHT31;61467;50.674;4.618;2022-07-29T08:21:54;22.09;51.67
72650;SHT31;61467;50.674;4.618;2022-07-29T08:24:21;22.02;51.99
72650;SHT31;61467;50.674;4.618;2022-07-29T08:27:05;22.79;50.21
72650;SHT31;61467;50.674;4.618;2022-07-29T08:29:34;23.00;49.41
72650;SHT31;61467;50.674;4.618;2022-07-29T08:32:00;23.10;48.99
72650;SHT31;61467;50.674;4.618;2022-07-29T08:34:27;22.93;49.97
72650;SHT31;61467;50.674;4.618;2022-07-29T08:36:54;23.27;48.88
72650;SHT31;61467;50.674;4.618;2022-07-29T08:39:20;23.38;48.33
72650;SHT31;61467;50.674;4.618;2022-07-29T08:41:47;23.38;48.75
72650;SHT31;61467;50.674;4.618;2022-07-29T08:44:15;23.20;48.66
72650;SHT31;61467;50.674;4.618;2022-07-29T08:46:44;23.28;48.48
72650;SHT31;61467;50.674;4.618;2022-07-29T08:49:11;23.58;47.97
72650;SHT31;61467;50.674;4.618;2022-07-29T08:51:40;23.49;48.16
72650;SHT31;61467;50.674;4.618;2022-07-29T08:54:08;23.39;48.61
72650;SHT31;61467;50.674;4.618;2022-07-29T08:56:35;23.51;48.37
72650;SHT31;61467;50.674;4.618;2022-07-29T08:59:03;23.41;48.71
72650;SHT31;61467;50.674;4.618;2022-07-29T09:01:33;23.62;47.93
72650;SHT31;61467;50.674;4.618;2022-07-29T09:04:04;23.65;47.81
72650;SHT31;61467;50.674;4.618;2022-07-29T09:06:32;23.70;47.98
72650;SHT31;61467;50.674;4.618;2022-07-29T09:09:00;23.70;47.86
72650;SHT31;61467;50.674;4.618;2022-07-29T09:11:27;23.66;48.42
72650;SHT31;61467;50.674;4.618;2022-07-29T09:13:54;24.02;47.42
72650;SHT31;61467;50.674;4.618;2022-07-29T09:16:21;24.23;46.82
72650;SHT31;61467;50.674;4.618;2022-07-29T09:18:48;24.09;47.42
72650;SHT31;61467;50.674;4.618;2022-07-29T09:21:17;24.24;46.93
72650;SHT31;61467;50.674;4.618;2022-07-29T09:24:05;23.99;46.15
72650;SHT31;61467;50.674;4.618;2022-07-29T09:26:34;24.03;46.21
72650;SHT31;61467;50.674;4.618;2022-07-29T09:29:08;24.26;46.35
72650;SHT31;61467;50.674;4.618;2022-07-29T09:31:37;24.00;46.04
72650;SHT31;61467;50.674;4.618;2022-07-29T09:34:05;24.09;46.22
72650;SHT31;61467;50.674;4.618;2022-07-29T09:36:40;24.09;45.86
72650;SHT31;61467;50.674;4.618;2022-07-29T09:39:06;23.65;46.53
72650;SHT31;61467;50.674;4.618;2022-07-29T09:41:45;23.62;46.59
72650;SHT31;61467;50.674;4.618;2022-07-29T09:44:12;23.98;46.44
72650;SHT31;61467;50.674;4.618;2022-07-29T09:46:40;23.90;45.70
72650;SHT31;61467;50.674;4.618;2022-07-29T09:49:19;24.16;45.55
72650;SHT31;61467;50.674;4.618;2022-07-29T09:51:47;24.10;45.88
72650;SHT31;61467;50.674;4.618;2022-07-29T09:54:23;24.38;45.73
72650;SHT31;61467;50.674;4.618;2022-07-29T09:56:51;24.47;45.45
72650;SHT31;61467;50.674;4.618;2022-07-29T09:59:18;24.29;45.33
72650;SHT31;61467;50.674;4.618;2022-07-29T10:01:48;24.34;45.27
72650;SHT31;61467;50.674;4.618;2022-07-29T10:04:15;24.40;45.18
72650;SHT31;61467;50.674;4.618;2022-07-29T10:07:00;24.60;43.98
72650;SHT31;61467;50.674;4.618;2022-07-29T10:09:28;24.85;43.51
72650;SHT31;61467;50.674;4.618;2022-07-29T10:12:05;24.84;43.49
72650;SHT31;61467;50.674;4.618;2022-07-29T10:14:33;25.02;43.66
72650;SHT31;61467;50.674;4.618;2022-07-29T10:17:01;24.63;44.02
72650;SHT31;61467;50.674;4.618;2022-07-29T10:19:28;24.56;43.65
72650;SHT31;61467;50.674;4.618;2022-07-29T10:21:58;24.75;44.07
72650;SHT31;61467;50.674;4.618;2022-07-29T10:24:26;24.78;43.11
72650;SHT31;61467;50.674;4.618;2022-07-29T10:26:54;25.01;43.22
72650;SHT31;61467;50.674;4.618;2022-07-29T10:29:21;24.99;42.63
72650;SHT31;61467;50.674;4.618;2022-07-29T10:31:56;25.09;42.57
72650;SHT31;61467;50.674;4.618;2022-07-29T10:34:33;24.98;42.79
72650;SHT31;61467;50.674;4.618;2022-07-29T10:37:08;25.01;42.88
72650;SHT31;61467;50.674;4.618;2022-07-29T10:39:51;25.08;42.82
72650;SHT31;61467;50.674;4.618;2022-07-29T10:42:21;25.15;42.58
72650;SHT31;61467;50.674;4.618;2022-07-29T10:44:50;25.18;42.64
72650;SHT31;61467;50.674;4.618;2022-07-29T10:47:22;25.19;43.38
72650;SHT31;61467;50.674;4.618;2022-07-29T10:49:56;25.40;41.76
72650;SHT31;61467;50.674;4.618;2022-07-29T10:52:24;25.51;41.49
72650;SHT31;61467;50.674;4.618;2022-07-29T10:54:53;25.40;41.36
72650;SHT31;61467;50.674;4.618;2022-07-29T10:57:24;25.53;41.11
72650;SHT31;61467;50.674;4.618;2022-07-29T11:00:25;25.06;40.82
72650;SHT31;61467;50.674;4.618;2022-07-29T11:02:53;25.29;41.85
72650;SHT31;61467;50.674;4.618;2022-07-29T11:05:23;25.30;41.34
72650;SHT31;61467;50.674;4.618;2022-07-29T11:08:19;25.23;41.38
72650;SHT31;61467;50.674;4.618;2022-07-29T11:13:50;25.49;40.49
72650;SHT31;61467;50.674;4.618;2022-07-29T11:16:19;25.65;40.45
72650;SHT31;61467;50.674;4.618;2022-07-29T11:19:18;25.39;40.63
72650;SHT31;61467;50.674;4.618;2022-07-29T11:21:45;25.29;41.39
72650;SHT31;61467;50.674;4.618;2022-07-29T11:24:18;25.02;41.39
72650;SHT31;61467;50.674;4.618;2022-07-29T11:27:06;24.98;41.30
72650;SHT31;61467;50.674;4.618;2022-07-29T11:29:35;25.02;41.57
72650;SHT31;61467;50.674;4.618;2022-07-29T11:32:08;25.19;40.82
72650;SHT31;61467;50.674;4.618;2022-07-29T11:34:36;25.63;41.07
72650;SHT31;61467;50.674;4.618;2022-07-29T11:37:19;25.36;41.03
72650;SHT31;61467;50.674;4.618;2022-07-29T11:40:11;25.35;41.52
72650;SHT31;61467;50.674;4.618;2022-07-29T11:42:40;25.50;41.67
72650;SHT31;61467;50.674;4.618;2022-07-29T11:45:09;25.73;40.93
72650;SHT31;61467;50.674;4.618;2022-07-29T11:47:37;25.98;40.74
72650;SHT31;61467;50.674;4.618;2022-07-29T11:50:06;25.80;40.57
72650;SHT31;61467;50.674;4.618;2022-07-29T11:52:34;25.59;39.77
72650;SHT31;61467;50.674;4.618;2022-07-29T11:55:05;25.71;40.24
72650;SHT31;61467;50.674;4.618;2022-07-29T11:57:34;25.70;39.50
72650;SHT31;61467;50.674;4.618;2022-07-29T12:00:01;26.04;38.54
72650;SHT31;61467;50.674;4.618;2022-07-29T12:02:38;26.24;39.00
72650;SHT31;61467;50.674;4.618;2022-07-29T12:05:07;26.14;37.01
72650;SHT31;61467;50.674;4.618;2022-07-29T12:07:34;26.44;38.01
72650;SHT31;61467;50.674;4.618;2022-07-29T12:10:04;26.49;37.87
72650;SHT31;61467;50.674;4.618;2022-07-29T12:12:31;26.79;38.34
72650;SHT31;61467;50.674;4.618;2022-07-29T12:14:58;26.95;37.95
72650;SHT31;61467;50.674;4.618;2022-07-29T12:17:36;26.55;38.38
72650;SHT31;61467;50.674;4.618;2022-07-29T12:20:05;26.20;38.79
72650;SHT31;61467;50.674;4.618;2022-07-29T12:22:33;25.87;39.41
72650;SHT31;61467;50.674;4.618;2022-07-29T12:25:05;25.86;39.87
72650;SHT31;61467;50.674;4.618;2022-07-29T12:27:32;25.83;40.01
72650;SHT31;61467;50.674;4.618;2022-07-29T12:30:00;26.22;39.83
72650;SHT31;61467;50.674;4.618;2022-07-29T12:32:31;26.49;38.82
72650;SHT31;61467;50.674;4.618;2022-07-29T12:34:59;26.49;38.87
72650;SHT31;61467;50.674;4.618;2022-07-29T12:37:26;26.46;37.72
72650;SHT31;61467;50.674;4.618;2022-07-29T12:39:53;26.63;38.22
72650;SHT31;61467;50.674;4.618;2022-07-29T12:42:21;26.55;37.64
72650;SHT31;61467;50.674;4.618;2022-07-29T12:44:49;26.35;38.08
72650;SHT31;61467;50.674;4.618;2022-07-29T12:47:18;26.37;38.82
72650;SHT31;61467;50.674;4.618;2022-07-29T12:49:45;26.18;38.78
72650;SHT31;61467;50.674;4.618;2022-07-29T12:52:29;25.96;38.81
72650;SHT31;61467;50.674;4.618;2022-07-29T12:54:56;26.02;38.41
72650;SHT31;61467;50.674;4.618;2022-07-29T12:57:28;25.98;39.24
72650;SHT31;61467;50.674;4.618;2022-07-29T13:00:07;25.63;39.38
72650;SHT31;61467;50.674;4.618;2022-07-29T13:08:22;25.88;39.43
72650;SHT31;61467;50.674;4.618;2022-07-29T13:10:49;26.07;39.64
72650;SHT31;61467;50.674;4.618;2022-07-29T13:13:17;26.00;39.18
72650;SHT31;61467;50.674;4.618;2022-07-29T13:15:45;25.86;39.45
72650;SHT31;61467;50.674;4.618;2022-07-29T13:18:28;26.05;39.31
72650;SHT31;61467;50.674;4.618;2022-07-29T13:20:56;26.07;38.40
72650;SHT31;61467;50.674;4.618;2022-07-29T13:23:23;26.21;38.89
72650;SHT31;61467;50.674;4.618;2022-07-29T13:25:50;26.55;38.73
72650;SHT31;61467;50.674;4.618;2022-07-29T13:28:18;26.85;38.36
72650;SHT31;61467;50.674;4.618;2022-07-29T13:30:47;27.16;37.80
72650;SHT31;61467;50.674;4.618;2022-07-29T13:33:14;26.99;37.44
72650;SHT31;61467;50.674;4.618;2022-07-29T13:49:09;27.72;34.97
72650;SHT31;61467;50.674;4.618;2022-07-29T13:51:37;27.58;35.01
72650;SHT31;61467;50.674;4.618;2022-07-29T13:54:04;27.47;34.48
72650;SHT31;61467;50.674;4.618;2022-07-29T14:20:34;26.42;36.14
72650;SHT31;61467;50.674;4.618;2022-07-29T14:23:01;26.48;36.09
72650;SHT31;61467;50.674;4.618;2022-07-29T14:25:28;26.76;35.65
72650;SHT31;61467;50.674;4.618;2022-07-29T14:27:54;26.75;36.22
72650;SHT31;61467;50.674;4.618;2022-07-29T14:33:46;26.73;36.38
72650;SHT31;61467;50.674;4.618;2022-07-29T14:36:14;26.48;36.09
72650;SHT31;61467;50.674;4.618;2022-07-29T14:38:40;26.83;36.24
72650;SHT31;61467;50.674;4.618;2022-07-29T14:41:07;26.39;35.90
72650;SHT31;61467;50.674;4.618;2022-07-29T14:43:34;26.25;36.32
72650;SHT31;61467;50.674;4.618;2022-07-29T14:46:01;26.29;36.57
72650;SHT31;61467;50.674;4.618;2022-07-29T14:48:28;26.89;37.05
72650;SHT31;61467;50.674;4.618;2022-07-29T14:50:55;27.18;36.30
72650;SHT31;61467;50.674;4.618;2022-07-29T14:53:23;27.18;35.67
72650;SHT31;61467;50.674;4.618;2022-07-29T14:55:50;26.58;34.66
72650;SHT31;61467;50.674;4.618;2022-07-29T14:58:16;26.58;34.72
72650;SHT31;61467;50.674;4.618;2022-07-29T15:00:44;26.58;34.98
72650;SHT31;61467;50.674;4.618;2022-07-29T15:03:11;26.68;35.72
72650;SHT31;61467;50.674;4.618;2022-07-29T15:05:38;26.93;35.45
72650;SHT31;61467;50.674;4.618;2022-07-29T15:08:05;27.18;35.33
72650;SHT31;61467;50.674;4.618;2022-07-29T15:10:34;27.20;35.30
72650;SHT31;61467;50.674;4.618;2022-07-29T15:13:01;27.16;35.45
72650;SHT31;61467;50.674;4.618;2022-07-29T15:15:28;27.10;35.50
72650;SHT31;61467;50.674;4.618;2022-07-29T15:17:54;27.00;35.81
72650;SHT31;61467;50.674;4.618;2022-07-29T15:20:21;26.90;35.85
72650;SHT31;61467;50.674;4.618;2022-07-29T15:22:50;26.73;35.97
72650;SHT31;61467;50.674;4.618;2022-07-29T15:25:17;26.69;35.70
72650;SHT31;61467;50.674;4.618;2022-07-29T15:27:45;26.68;35.49
72650;SHT31;61467;50.674;4.618;2022-07-29T15:30:12;26.92;35.07
72650;SHT31;61467;50.674;4.618;2022-07-29T15:32:40;27.37;35.35
72650;SHT31;61467;50.674;4.618;2022-07-29T15:35:07;27.65;35.46
72650;SHT31;61467;50.674;4.618;2022-07-29T15:37:35;27.94;35.04
72650;SHT31;61467;50.674;4.618;2022-07-29T15:40:03;27.91;33.31
72650;SHT31;61467;50.674;4.618;2022-07-29T15:42:29;28.29;34.37
72650;SHT31;61467;50.674;4.618;2022-07-29T15:44:57;28.20;33.16
72650;SHT31;61467;50.674;4.618;2022-07-29T15:47:28;28.47;33.95
72650;SHT31;61467;50.674;4.618;2022-07-29T15:49:54;28.67;33.19
72650;SHT31;61467;50.674;4.618;2022-07-29T15:52:21;28.68;31.67
72650;SHT31;61467;50.674;4.618;2022-07-29T15:54:48;28.31;32.37
72650;SHT31;61467;50.674;4.618;2022-07-29T15:57:15;28.33;31.54
72650;SHT31;61467;50.674;4.618;2022-07-29T15:59:42;28.63;32.31
72650;SHT31;61467;50.674;4.618;2022-07-29T16:02:10;28.86;30.54
72650;SHT31;61467;50.674;4.618;2022-07-29T16:04:36;28.60;30.83
72650;SHT31;61467;50.674;4.618;2022-07-29T16:07:03;28.60;30.31
72650;SHT31;61467;50.674;4.618;2022-07-29T16:09:30;28.90;31.21
72650;SHT31;61467;50.674;4.618;2022-07-29T16:11:56;28.39;28.72
72650;SHT31;61467;50.674;4.618;2022-07-29T16:14:23;28.17;29.87
72650;SHT31;61467;50.674;4.618;2022-07-29T16:16:50;27.96;29.52
72650;SHT31;61467;50.674;4.618;2022-07-29T16:19:18;28.29;31.68
72650;SHT31;61467;50.674;4.618;2022-07-29T16:21:45;28.20;30.71
72650;SHT31;61467;50.674;4.618;2022-07-29T16:24:12;27.75;30.89
72650;SHT31;61467;50.674;4.618;2022-07-29T16:26:38;28.05;30.88
72650;SHT31;61467;50.674;4.618;2022-07-29T16:29:05;28.50;31.62
72650;SHT31;61467;50.674;4.618;2022-07-29T16:31:32;28.78;31.07